createdAt,value
2019-06-26T00:00:29.549Z,24.49
2019-06-26T00:02:58.435Z,24.51
2019-06-26T00:05:27.852Z,24.29
2019-06-26T00:07:57.334Z,24.18
2019-06-26T00:10:26.710Z,24.33
2019-06-26T00:12:55.855Z,24.44
2019-06-26T00:15:25.163Z,24.40
2019-06-26T00:17:54.039Z,24.30
2019-06-26T00:20:26.017Z,24.25
2019-06-26T00:22:54.894Z,24.33
2019-06-26T00:25:24.915Z,24.20
2019-06-26T00:27:53.802Z,24.20
2019-06-26T00:30:22.695Z,24.06
2019-06-26T00:32:51.588Z,24.12
2019-06-26T00:35:20.478Z,24.17
2019-06-26T00:37:49.365Z,24.13
2019-06-26T00:40:18.358Z,24.11
2019-06-26T00:42:47.151Z,24.10
2019-06-26T00:45:16.619Z,24.02
2019-06-26T00:47:45.443Z,24.07
2019-06-26T00:50:14.746Z,23.90
2019-06-26T00:52:43.634Z,23.90
2019-06-26T00:55:13.552Z,23.88
2019-06-26T00:57:42.544Z,23.86
2019-06-26T01:00:13.995Z,23.78
2019-06-26T01:02:42.784Z,23.71
2019-06-26T01:05:13.842Z,23.77
2019-06-26T01:07:43.026Z,23.64
2019-06-26T01:10:13.769Z,23.73
2019-06-26T01:12:42.651Z,23.79
2019-06-26T01:15:12.669Z,23.76
2019-06-26T01:17:41.562Z,23.77
2019-06-26T01:20:14.243Z,23.77
2019-06-26T01:22:43.131Z,23.76
2019-06-26T01:25:13.645Z,23.75
2019-06-26T01:27:42.551Z,23.55
2019-06-26T01:30:12.245Z,23.44
2019-06-26T01:32:41.056Z,23.46
2019-06-26T01:35:10.576Z,23.64
2019-06-26T01:37:39.455Z,23.67
2019-06-26T01:40:09.056Z,23.60
2019-06-26T01:42:37.948Z,23.49
2019-06-26T01:45:08.081Z,23.40
2019-06-26T01:47:37.081Z,23.53
2019-06-26T01:50:07.362Z,23.58
2019-06-26T01:52:36.278Z,23.38
2019-06-26T01:55:08.989Z,23.46
2019-06-26T01:57:37.849Z,23.33
2019-06-26T02:00:10.685Z,23.22
2019-06-26T02:02:39.533Z,23.39
2019-06-26T02:05:09.007Z,23.28
2019-06-26T02:07:37.826Z,23.23
2019-06-26T02:10:08.018Z,23.37
2019-06-26T02:12:37.045Z,23.39
2019-06-26T02:15:07.803Z,23.22
2019-06-26T02:17:36.748Z,23.20
2019-06-26T02:20:09.526Z,23.40
2019-06-26T02:22:38.334Z,23.31
2019-06-26T02:25:07.522Z,23.25
2019-06-26T02:27:36.631Z,23.20
2019-06-26T02:30:07.533Z,23.13
2019-06-26T02:32:36.566Z,23.15
2019-06-26T02:35:09.821Z,23.16
2019-06-26T02:37:37.794Z,23.20
2019-06-26T02:40:07.616Z,23.26
2019-06-26T02:42:36.428Z,23.33
2019-06-26T02:45:06.797Z,23.08
2019-06-26T02:47:35.957Z,23.03
2019-06-26T02:50:07.150Z,23.07
2019-06-26T02:52:36.090Z,23.06
2019-06-26T02:55:07.472Z,22.93
2019-06-26T02:57:36.355Z,23.01
2019-06-26T03:00:07.210Z,23.06
2019-06-26T03:02:36.062Z,22.98
2019-06-26T03:05:06.759Z,22.88
2019-06-26T03:07:37.223Z,22.65
2019-06-26T03:10:08.009Z,22.88
2019-06-26T03:12:36.949Z,22.71
2019-06-26T03:15:09.892Z,22.89
2019-06-26T03:17:54.053Z,22.92
2019-06-26T03:20:10.391Z,22.94
2019-06-26T03:22:39.272Z,22.86
2019-06-26T03:25:09.191Z,22.90
2019-06-26T03:27:38.079Z,22.80
2019-06-26T03:30:09.025Z,22.73
2019-06-26T03:32:37.909Z,22.74
2019-06-26T03:35:07.097Z,22.64
2019-06-26T03:37:36.010Z,22.74
2019-06-26T03:40:06.524Z,22.77
2019-06-26T03:42:35.421Z,22.71
2019-06-26T03:45:06.052Z,22.77
2019-06-26T03:47:34.944Z,22.69
2019-06-26T03:50:05.063Z,22.50
2019-06-26T03:52:33.956Z,22.63
2019-06-26T03:55:02.845Z,22.51
2019-06-26T03:57:35.164Z,22.46
2019-06-26T04:00:02.425Z,22.45
2019-06-26T04:02:31.348Z,22.63
2019-06-26T04:05:00.334Z,22.50
2019-06-26T04:07:29.251Z,22.50
2019-06-26T04:09:58.143Z,22.57
2019-06-26T04:12:27.031Z,22.54
2019-06-26T04:14:55.922Z,22.54
2019-06-26T04:17:24.815Z,22.41
2019-06-26T04:19:53.704Z,22.36
2019-06-26T04:22:22.596Z,22.42
2019-06-26T04:24:51.487Z,22.18
2019-06-26T04:27:22.030Z,22.33
2019-06-26T04:29:50.912Z,22.43
2019-06-26T04:32:19.802Z,22.42
2019-06-26T04:34:48.691Z,22.47
2019-06-26T04:37:17.585Z,22.58
2019-06-26T04:39:46.474Z,22.70
2019-06-26T04:42:15.371Z,22.55
2019-06-26T04:44:44.276Z,22.61
2019-06-26T04:47:13.153Z,22.55
2019-06-26T04:49:43.682Z,22.70
2019-06-26T04:52:12.575Z,22.54
2019-06-26T04:54:41.463Z,22.49
2019-06-26T04:57:10.802Z,22.59
2019-06-26T04:59:39.755Z,22.72
2019-06-26T05:02:09.539Z,22.66
2019-06-26T05:04:38.465Z,22.63
2019-06-26T05:07:07.862Z,22.74
2019-06-26T05:09:36.784Z,22.77
2019-06-26T05:12:05.648Z,22.73
2019-06-26T05:14:34.547Z,22.69
2019-06-26T05:17:03.467Z,22.78
2019-06-26T05:19:32.524Z,22.93
2019-06-26T05:22:01.417Z,22.93
2019-06-26T05:24:30.307Z,22.92
2019-06-26T05:26:59.200Z,22.86
2019-06-26T05:29:28.092Z,22.80
2019-06-26T05:31:56.989Z,22.75
2019-06-26T05:34:25.872Z,23.00
2019-06-26T05:36:54.764Z,23.29
2019-06-26T05:39:23.759Z,23.33
2019-06-26T05:41:54.083Z,23.40
2019-06-26T05:44:22.973Z,23.45
2019-06-26T05:46:51.872Z,23.49
2019-06-26T05:49:20.776Z,23.60
2019-06-26T05:51:49.682Z,23.73
2019-06-26T05:54:18.542Z,23.69
2019-06-26T05:56:47.442Z,23.66
2019-06-26T05:59:16.325Z,23.62
2019-06-26T06:01:45.220Z,23.61
2019-06-26T06:04:14.109Z,23.61
2019-06-26T06:06:42.999Z,23.73
2019-06-26T06:09:11.993Z,23.63
2019-06-26T06:11:40.881Z,23.61
2019-06-26T06:14:10.182Z,23.82
2019-06-26T06:16:47.186Z,23.85
2019-06-26T06:19:09.613Z,23.82
2019-06-26T06:21:38.497Z,24.17
2019-06-26T06:24:07.986Z,24.33
2019-06-26T06:26:36.893Z,24.42
2019-06-26T06:29:05.991Z,24.56
2019-06-26T06:31:34.881Z,24.64
2019-06-26T06:34:03.775Z,24.53
2019-06-26T06:36:32.661Z,24.39
2019-06-26T06:39:05.082Z,24.80
2019-06-26T06:41:43.224Z,24.17
2019-06-26T06:44:11.116Z,24.21
2019-06-26T06:46:43.052Z,24.35
2019-06-26T06:49:12.582Z,24.51
2019-06-26T06:51:41.479Z,24.63
2019-06-26T06:54:12.722Z,24.66
2019-06-26T06:56:41.617Z,24.87
2019-06-26T06:59:10.809Z,24.88
2019-06-26T07:01:39.806Z,25.14
2019-06-26T07:04:11.277Z,25.50
2019-06-26T07:06:40.177Z,25.54
2019-06-26T07:09:10.211Z,25.49
2019-06-26T07:11:40.698Z,25.67
2019-06-26T07:14:10.715Z,25.74
2019-06-26T07:16:44.111Z,25.73
2019-06-26T07:19:14.439Z,25.76
2019-06-26T07:21:43.340Z,25.71
2019-06-26T07:24:12.224Z,25.92
2019-06-26T07:26:41.112Z,25.35
2019-06-26T07:29:10.721Z,25.30
2019-06-26T07:31:49.136Z,25.26
2019-06-26T07:34:18.236Z,25.64
2019-06-26T07:36:49.490Z,25.73
2019-06-26T07:39:18.563Z,25.86
2019-06-26T07:41:50.509Z,25.53
2019-06-26T07:44:20.860Z,25.68
2019-06-26T07:46:55.144Z,25.60
2019-06-26T07:49:24.170Z,25.71
2019-06-26T07:51:55.929Z,25.42
2019-06-26T07:54:24.828Z,25.51
2019-06-26T07:56:55.904Z,25.71
2019-06-26T07:59:29.720Z,25.57
2019-06-26T08:02:06.827Z,25.81
2019-06-26T08:04:35.650Z,25.99
2019-06-26T08:07:11.264Z,26.14
2019-06-26T08:09:42.861Z,25.93
2019-06-26T08:12:12.219Z,25.82
2019-06-26T08:14:46.050Z,25.92
2019-06-26T08:17:20.870Z,26.22
2019-06-26T08:19:55.113Z,26.22
2019-06-26T08:22:29.122Z,25.98
2019-06-26T08:25:00.300Z,26.20
2019-06-26T08:28:00.907Z,26.34
2019-06-26T08:30:34.727Z,26.48
2019-06-26T08:33:16.143Z,26.29
2019-06-26T08:35:48.594Z,26.37
2019-06-26T08:38:20.154Z,26.71
2019-06-26T08:40:53.149Z,26.83
2019-06-26T08:43:23.229Z,26.71
2019-06-26T08:45:55.009Z,26.62
2019-06-26T08:48:38.951Z,26.73
2019-06-26T08:50:56.660Z,26.76
2019-06-26T08:53:25.445Z,26.70
2019-06-26T08:55:54.351Z,26.79
2019-06-26T08:58:23.232Z,27.20
2019-06-26T09:00:52.126Z,27.45
2019-06-26T09:03:21.017Z,27.32
2019-06-26T09:05:49.904Z,27.46
2019-06-26T09:08:19.044Z,27.33
2019-06-26T09:10:48.013Z,27.41
2019-06-26T09:13:16.893Z,27.59
2019-06-26T09:15:49.615Z,27.56
2019-06-26T09:18:16.309Z,27.26
2019-06-26T09:20:46.941Z,27.33
2019-06-26T09:23:15.832Z,27.69
2019-06-26T09:25:44.805Z,27.90
2019-06-26T09:28:13.615Z,28.18
2019-06-26T09:30:42.516Z,27.80
2019-06-26T09:33:12.059Z,27.90
2019-06-26T09:35:43.248Z,28.04
2019-06-26T09:38:12.051Z,27.73
2019-06-26T09:40:40.940Z,27.71
2019-06-26T09:43:10.856Z,28.04
2019-06-26T09:45:39.800Z,28.11
2019-06-26T09:48:09.257Z,27.98
2019-06-26T09:50:38.397Z,28.22
2019-06-26T09:53:07.960Z,28.06
2019-06-26T09:55:38.283Z,28.06
2019-06-26T09:58:07.999Z,28.10
2019-06-26T10:00:39.936Z,28.32
2019-06-26T10:03:09.773Z,28.54
2019-06-26T10:05:38.664Z,28.62
2019-06-26T10:08:07.729Z,28.62
2019-06-26T10:10:36.753Z,28.61
2019-06-26T10:13:05.542Z,28.56
2019-06-26T10:15:34.461Z,28.71
2019-06-26T10:18:03.327Z,28.98
2019-06-26T10:20:32.216Z,28.87
2019-06-26T10:23:01.106Z,29.20
2019-06-26T10:25:30.001Z,29.36
2019-06-26T10:27:58.897Z,29.09
2019-06-26T10:30:27.779Z,29.05
2019-06-26T10:32:56.673Z,29.26
2019-06-26T10:35:25.594Z,29.07
2019-06-26T10:37:54.558Z,29.24
2019-06-26T10:40:23.554Z,29.23
2019-06-26T10:42:52.443Z,29.21
2019-06-26T10:45:21.443Z,29.22
2019-06-26T10:47:50.331Z,29.48
2019-06-26T10:50:19.422Z,29.52
2019-06-26T10:52:48.319Z,29.58
2019-06-26T10:55:18.453Z,29.50
2019-06-26T10:57:47.329Z,29.77
2019-06-26T11:00:17.888Z,29.87
2019-06-26T11:02:46.958Z,30.07
2019-06-26T11:05:16.467Z,29.86
2019-06-26T11:07:45.455Z,30.15
2019-06-26T11:10:15.846Z,30.11
2019-06-26T11:12:47.984Z,30.10
2019-06-26T11:15:15.206Z,30.04
2019-06-26T11:17:44.090Z,30.20
2019-06-26T11:20:13.699Z,30.31
2019-06-26T11:22:44.130Z,30.28
2019-06-26T11:25:13.754Z,30.14
2019-06-26T11:27:42.625Z,30.22
2019-06-26T11:30:13.328Z,30.13
2019-06-26T11:32:42.150Z,30.18
2019-06-26T11:35:11.555Z,30.39
2019-06-26T11:37:40.551Z,30.30
2019-06-26T11:40:10.745Z,30.44
2019-06-26T11:42:39.767Z,30.43
2019-06-26T11:45:10.544Z,30.58
2019-06-26T11:47:39.791Z,30.62
2019-06-26T11:50:09.676Z,30.97
2019-06-26T11:52:38.978Z,31.03
2019-06-26T11:55:10.501Z,30.98
2019-06-26T11:57:39.605Z,30.95
2019-06-26T12:00:13.038Z,30.76
2019-06-26T12:02:41.854Z,30.94
2019-06-26T12:05:14.344Z,30.85
2019-06-26T12:07:43.224Z,30.89
2019-06-26T12:10:13.140Z,30.94
2019-06-26T12:12:42.035Z,31.07
2019-06-26T12:15:13.648Z,31.39
2019-06-26T12:17:42.470Z,31.20
2019-06-26T12:20:19.403Z,31.16
2019-06-26T12:22:45.791Z,31.33
2019-06-26T12:25:14.792Z,31.37
2019-06-26T12:27:43.671Z,31.26
2019-06-26T12:30:13.394Z,31.21
2019-06-26T12:32:57.870Z,31.19
2019-06-26T12:35:15.567Z,31.25
2019-06-26T12:37:44.460Z,31.36
2019-06-26T12:40:14.160Z,31.58
2019-06-26T12:42:42.938Z,31.81
2019-06-26T12:45:12.886Z,31.61
2019-06-26T12:47:41.866Z,31.71
2019-06-26T12:50:14.239Z,31.89
2019-06-26T12:52:43.135Z,31.96
2019-06-26T12:55:13.146Z,31.95
2019-06-26T12:57:42.144Z,32.14
2019-06-26T13:00:12.648Z,32.19
2019-06-26T13:02:41.564Z,32.26
2019-06-26T13:05:11.479Z,32.07
2019-06-26T13:07:40.371Z,32.43
2019-06-26T13:10:11.014Z,32.12
2019-06-26T13:12:39.907Z,32.10
2019-06-26T13:15:09.995Z,32.54
2019-06-26T13:17:38.805Z,32.90
2019-06-26T13:20:10.965Z,32.82
2019-06-26T13:22:39.793Z,32.57
2019-06-26T13:25:09.643Z,32.51
2019-06-26T13:27:38.675Z,32.99
2019-06-26T13:30:08.079Z,32.52
2019-06-26T13:32:37.094Z,32.80
2019-06-26T13:35:07.181Z,33.03
2019-06-26T13:37:37.614Z,33.22
2019-06-26T13:40:08.208Z,33.44
2019-06-26T13:42:37.037Z,33.46
2019-06-26T13:45:07.388Z,33.47
2019-06-26T13:47:36.259Z,33.49
2019-06-26T13:50:08.972Z,33.20
2019-06-26T13:52:37.928Z,33.76
2019-06-26T13:55:07.434Z,33.58
2019-06-26T13:57:36.433Z,33.53
2019-06-26T14:00:10.450Z,33.68
2019-06-26T14:02:39.326Z,34.09
2019-06-26T14:05:09.536Z,34.16
2019-06-26T14:07:39.162Z,34.18
2019-06-26T14:10:09.306Z,34.35
2019-06-26T14:12:38.572Z,33.83
2019-06-26T14:15:08.295Z,33.79
2019-06-26T14:17:37.093Z,33.59
2019-06-26T14:20:06.677Z,34.05
2019-06-26T14:22:35.477Z,33.98
2019-06-26T14:25:05.925Z,34.16
2019-06-26T14:27:34.898Z,34.04
2019-06-26T14:30:05.127Z,34.49
2019-06-26T14:32:34.016Z,35.00
2019-06-26T14:35:03.313Z,34.47
2019-06-26T14:37:32.205Z,34.57
2019-06-26T14:40:01.107Z,34.23
2019-06-26T14:42:30.022Z,34.57
2019-06-26T14:44:58.878Z,34.75
2019-06-26T14:47:27.774Z,34.72
2019-06-26T14:49:56.664Z,34.80
2019-06-26T14:52:25.591Z,34.51
2019-06-26T14:54:54.446Z,34.47
2019-06-26T14:57:25.954Z,34.67
2019-06-26T14:59:53.968Z,34.63
2019-06-26T15:02:22.860Z,34.77
2019-06-26T15:04:51.752Z,34.52
2019-06-26T15:07:20.644Z,35.06
2019-06-26T15:09:50.475Z,35.45
2019-06-26T15:12:19.348Z,35.67
2019-06-26T15:14:48.248Z,35.69
2019-06-26T15:17:18.664Z,34.59
2019-06-26T15:19:48.991Z,34.48
2019-06-26T15:22:19.421Z,35.30
2019-06-26T15:24:48.624Z,34.88
2019-06-26T15:27:17.513Z,35.27
2019-06-26T15:29:46.596Z,36.21
2019-06-26T15:32:15.450Z,35.17
2019-06-26T15:34:44.321Z,35.09
2019-06-26T15:37:13.183Z,35.30
2019-06-26T15:39:42.075Z,35.19
2019-06-26T15:42:12.087Z,35.73
2019-06-26T15:44:40.980Z,35.60
2019-06-26T15:47:10.689Z,35.14
2019-06-26T15:49:39.579Z,35.47
2019-06-26T15:52:14.888Z,35.78
2019-06-26T15:54:39.615Z,35.96
2019-06-26T15:57:08.609Z,36.19
2019-06-26T15:59:37.501Z,36.17
2019-06-26T16:02:07.827Z,36.14
2019-06-26T16:04:36.717Z,36.32
2019-06-26T16:07:05.662Z,36.41
2019-06-26T16:09:36.256Z,36.25
2019-06-26T16:12:05.133Z,36.30
2019-06-26T16:14:34.025Z,36.59
2019-06-26T16:17:10.636Z,36.25
2019-06-26T16:19:39.489Z,36.42
2019-06-26T16:22:08.789Z,36.89
2019-06-26T16:24:37.681Z,36.21
2019-06-26T16:27:06.590Z,36.72
2019-06-26T16:29:35.465Z,36.07
2019-06-26T16:32:04.262Z,35.68
2019-06-26T16:34:33.145Z,36.26
2019-06-26T16:37:02.038Z,36.73
2019-06-26T16:39:30.927Z,36.64
2019-06-26T16:41:59.928Z,36.40
2019-06-26T16:44:28.821Z,36.25
2019-06-26T16:46:59.319Z,36.87
2019-06-26T16:49:28.334Z,36.62
2019-06-26T16:51:57.231Z,36.60
2019-06-26T16:54:26.122Z,36.74
2019-06-26T16:56:55.034Z,36.66
2019-06-26T16:59:23.902Z,36.66
2019-06-26T17:01:52.999Z,36.70
2019-06-26T17:04:21.992Z,36.20
2019-06-26T17:06:50.980Z,36.92
2019-06-26T17:09:19.875Z,36.91
2019-06-26T17:11:48.870Z,37.29
2019-06-26T17:14:17.763Z,37.64
2019-06-26T17:16:46.652Z,37.45
2019-06-26T17:19:15.544Z,37.71
2019-06-26T17:21:44.436Z,37.92
2019-06-26T17:24:14.590Z,37.48
2019-06-26T17:26:44.810Z,37.42
2019-06-26T17:29:13.675Z,37.44
2019-06-26T17:31:42.561Z,37.41
2019-06-26T17:34:11.876Z,37.05
2019-06-26T17:36:40.757Z,36.32
2019-06-26T17:39:10.465Z,35.88
2019-06-26T17:41:43.987Z,36.08
2019-06-26T17:44:12.038Z,35.99
2019-06-26T17:46:40.929Z,35.55
2019-06-26T17:49:10.744Z,35.66
2019-06-26T17:51:39.633Z,35.75
2019-06-26T17:54:09.037Z,35.32
2019-06-26T17:56:37.941Z,35.02
2019-06-26T17:59:07.534Z,34.96
2019-06-26T18:01:36.426Z,34.72
2019-06-26T18:04:06.143Z,33.97
2019-06-26T18:06:35.235Z,34.00
2019-06-26T18:09:06.297Z,33.80
2019-06-26T18:11:35.185Z,33.80
2019-06-26T18:14:04.060Z,33.74
2019-06-26T18:16:32.949Z,33.64
2019-06-26T18:19:02.061Z,33.61
2019-06-26T18:21:31.127Z,33.26
2019-06-26T18:23:59.931Z,33.48
2019-06-26T18:26:28.924Z,33.08
2019-06-26T18:28:57.819Z,32.89
2019-06-26T18:31:26.723Z,33.32
2019-06-26T18:33:55.600Z,33.12
2019-06-26T18:36:24.490Z,33.20
2019-06-26T18:38:53.384Z,33.04
2019-06-26T18:41:22.277Z,32.15
2019-06-26T18:43:51.189Z,32.42
2019-06-26T18:46:20.058Z,32.45
2019-06-26T18:48:48.949Z,32.09
2019-06-26T18:51:17.837Z,31.94
2019-06-26T18:53:53.536Z,31.73
2019-06-26T18:56:17.445Z,31.47
2019-06-26T18:58:46.354Z,31.45
2019-06-26T19:01:15.247Z,31.15
2019-06-26T19:03:44.242Z,31.32
2019-06-26T19:06:13.132Z,31.05
2019-06-26T19:08:42.433Z,30.83
2019-06-26T19:11:12.348Z,30.68
2019-06-26T19:13:41.240Z,30.46
2019-06-26T19:16:10.746Z,30.46
2019-06-26T19:18:39.640Z,30.58
2019-06-26T19:21:09.553Z,30.31
2019-06-26T19:23:38.444Z,30.29
2019-06-26T19:26:07.849Z,30.31
2019-06-26T19:28:36.746Z,30.08
2019-06-26T19:31:05.632Z,30.01
2019-06-26T19:33:34.530Z,29.76
2019-06-26T19:36:03.412Z,29.85
2019-06-26T19:38:32.456Z,29.55
2019-06-26T19:41:01.330Z,29.58
2019-06-26T19:43:30.295Z,29.27
2019-06-26T19:45:59.084Z,28.83
2019-06-26T19:48:27.973Z,28.66
2019-06-26T19:50:56.863Z,29.08
2019-06-26T19:53:26.884Z,29.04
2019-06-26T19:55:55.774Z,29.14
2019-06-26T19:58:24.665Z,29.05
2019-06-26T20:00:53.561Z,29.00
2019-06-26T20:03:22.551Z,29.05
2019-06-26T20:05:51.441Z,28.59
2019-06-26T20:08:21.767Z,28.36
2019-06-26T20:10:50.657Z,28.44
2019-06-26T20:13:19.548Z,28.38
2019-06-26T20:15:48.443Z,28.46
2019-06-26T20:18:17.333Z,28.36
2019-06-26T20:20:46.222Z,28.46
2019-06-26T20:23:15.121Z,28.50
2019-06-26T20:25:44.109Z,28.34
2019-06-26T20:28:12.997Z,28.29
2019-06-26T20:30:41.892Z,28.21
2019-06-26T20:33:11.294Z,28.12
2019-06-26T20:35:41.697Z,28.09
2019-06-26T20:38:10.817Z,27.92
2019-06-26T20:40:39.707Z,28.20
2019-06-26T20:43:09.527Z,28.13
2019-06-26T20:45:38.413Z,28.02
2019-06-26T20:48:07.716Z,27.47
2019-06-26T20:50:36.608Z,27.73
2019-06-26T20:53:05.398Z,27.67
2019-06-26T20:55:34.495Z,27.61
2019-06-26T20:58:03.381Z,27.66
2019-06-26T21:00:32.273Z,27.39
2019-06-26T21:03:01.165Z,27.53
2019-06-26T21:05:30.057Z,27.59
2019-06-26T21:07:58.947Z,27.55
2019-06-26T21:10:27.840Z,27.49
2019-06-26T21:12:57.755Z,27.27
2019-06-26T21:15:26.646Z,27.28
2019-06-26T21:17:55.537Z,27.26
2019-06-26T21:20:24.429Z,27.25
2019-06-26T21:22:53.319Z,27.18
2019-06-26T21:25:22.519Z,27.10
2019-06-26T21:27:51.412Z,27.07
2019-06-26T21:30:20.403Z,27.04
2019-06-26T21:32:49.302Z,27.06
2019-06-26T21:35:18.393Z,27.03
2019-06-26T21:37:47.181Z,26.93
2019-06-26T21:40:16.175Z,26.96
2019-06-26T21:42:45.106Z,26.96
2019-06-26T21:45:14.467Z,26.81
2019-06-26T21:47:43.360Z,26.86
2019-06-26T21:50:12.764Z,26.71
2019-06-26T21:52:41.660Z,26.96
2019-06-26T21:55:12.597Z,26.80
2019-06-26T21:57:41.493Z,26.57
2019-06-26T22:00:12.278Z,26.84
2019-06-26T22:02:41.267Z,26.65
2019-06-26T22:05:10.937Z,26.72
2019-06-26T22:07:39.816Z,26.23
2019-06-26T22:10:09.943Z,26.59
2019-06-26T22:12:38.832Z,26.74
2019-06-26T22:15:08.121Z,26.59
2019-06-26T22:17:37.021Z,26.55
2019-06-26T22:20:11.230Z,26.13
2019-06-26T22:22:38.080Z,26.14
2019-06-26T22:25:08.868Z,26.11
2019-06-26T22:27:37.808Z,26.32
2019-06-26T22:30:10.069Z,26.21
2019-06-26T22:32:38.969Z,26.29
2019-06-26T22:35:08.271Z,26.28
2019-06-26T22:37:37.162Z,26.20
2019-06-26T22:40:06.750Z,26.17
2019-06-26T22:42:35.557Z,26.23
2019-06-26T22:45:05.442Z,26.19
2019-06-26T22:47:34.471Z,26.18
2019-06-26T22:50:03.992Z,26.18
2019-06-26T22:52:32.968Z,26.02
2019-06-26T22:55:01.861Z,26.11
2019-06-26T22:57:30.752Z,25.92
2019-06-26T22:59:59.662Z,25.84
2019-06-26T23:02:28.536Z,25.86
2019-06-26T23:04:57.437Z,25.85
2019-06-26T23:07:26.419Z,25.92
2019-06-26T23:09:55.313Z,25.81
2019-06-26T23:12:24.201Z,25.85
2019-06-26T23:14:53.198Z,25.72
2019-06-26T23:17:22.092Z,25.67
2019-06-26T23:19:50.982Z,25.73
2019-06-26T23:22:19.869Z,25.87
2019-06-26T23:24:48.761Z,25.88
2019-06-26T23:27:17.658Z,25.75
2019-06-26T23:29:46.447Z,25.68
2019-06-26T23:32:15.333Z,25.73
2019-06-26T23:34:44.225Z,25.76
2019-06-26T23:37:13.115Z,25.85
2019-06-26T23:39:42.011Z,25.59
2019-06-26T23:42:11.211Z,25.48
2019-06-26T23:44:40.122Z,25.54
2019-06-26T23:47:09.502Z,25.46
2019-06-26T23:49:39.829Z,25.32
2019-06-26T23:52:08.922Z,25.45
2019-06-26T23:54:37.816Z,25.43
2019-06-26T23:57:06.711Z,25.49
2019-06-26T23:59:35.596Z,25.45
